Terminal Aerodrome Forecast
Issued by NWS Cleveland, OH

Home | Current Version | Previous Version | Text Only | Print | Product List | Glossary On
Versions: 1 2 3 4 5 6 7 8 9 10 11 12 13 14 15 16 17
000
FTUS41 KCLE 251724
TAFYNG
TAF
KYNG 251724Z 2518/2618 27010KT P6SM VCSH SCT035 BKN060
      TEMPO 2518/2519 BKN030
     FM260000 26004KT P6SM SCT040 BKN150
     FM260700 30003KT 6SM BR SKC
      TEMPO 2609/2613 3SM BR
     FM261600 35007KT P6SM SCT035=

USA.gov is the U.S. government's official web portal to all federal, state and local government web resources and services.